sensor_id;sensor_type;location;lat;lon;timestamp;P1;durP1;ratioP1;P2;durP2;ratioP2
7703;SDS011;3894;49.700;10.770;2023-04-09T00:02:17;23.30;;;8.52;;
7703;SDS011;3894;49.700;10.770;2023-04-09T00:07:10;21.23;;;8.18;;
7703;SDS011;3894;49.700;10.770;2023-04-09T00:09:37;21.42;;;9.15;;
7703;SDS011;3894;49.700;10.770;2023-04-09T00:12:03;20.52;;;8.52;;
7703;SDS011;3894;49.700;10.770;2023-04-09T00:14:29;19.63;;;8.68;;
7703;SDS011;3894;49.700;10.770;2023-04-09T00:16:57;21.85;;;9.15;;
7703;SDS011;3894;49.700;10.770;2023-04-09T00:19:22;20.75;;;8.65;;
7703;SDS011;3894;49.700;10.770;2023-04-09T00:21:48;21.20;;;9.18;;
7703;SDS011;3894;49.700;10.770;2023-04-09T00:24:14;19.85;;;9.23;;
7703;SDS011;3894;49.700;10.770;2023-04-09T00:26:40;19.63;;;9.52;;
7703;SDS011;3894;49.700;10.770;2023-04-09T00:29:06;23.20;;;8.95;;
7703;SDS011;3894;49.700;10.770;2023-04-09T00:31:34;21.13;;;8.40;;
7703;SDS011;3894;49.700;10.770;2023-04-09T00:34:00;21.65;;;9.45;;
7703;SDS011;3894;49.700;10.770;2023-04-09T00:36:26;20.63;;;8.63;;
7703;SDS011;3894;49.700;10.770;2023-04-09T00:38:52;20.90;;;9.95;;
7703;SDS011;3894;49.700;10.770;2023-04-09T00:41:18;21.65;;;9.85;;
7703;SDS011;3894;49.700;10.770;2023-04-09T00:43:43;19.23;;;8.43;;
7703;SDS011;3894;49.700;10.770;2023-04-09T00:46:12;22.90;;;8.85;;
7703;SDS011;3894;49.700;10.770;2023-04-09T00:48:39;23.25;;;9.40;;
7703;SDS011;3894;49.700;10.770;2023-04-09T00:51:06;20.45;;;8.20;;
7703;SDS011;3894;49.700;10.770;2023-04-09T00:53:33;23.00;;;9.43;;
7703;SDS011;3894;49.700;10.770;2023-04-09T00:55:58;19.83;;;9.25;;
7703;SDS011;3894;49.700;10.770;2023-04-09T00:58:25;23.63;;;9.80;;
7703;SDS011;3894;49.700;10.770;2023-04-09T01:00:51;21.42;;;9.43;;
7703;SDS011;3894;49.700;10.770;2023-04-09T01:03:17;19.38;;;8.20;;
7703;SDS011;3894;49.700;10.770;2023-04-09T01:05:47;23.45;;;9.23;;
7703;SDS011;3894;49.700;10.770;2023-04-09T01:10:58;23.52;;;10.25;;
7703;SDS011;3894;49.700;10.770;2023-04-09T01:16:21;21.00;;;9.45;;
7703;SDS011;3894;49.700;10.770;2023-04-09T01:18:55;24.20;;;9.73;;
7703;SDS011;3894;49.700;10.770;2023-04-09T01:21:29;20.90;;;8.60;;
7703;SDS011;3894;49.700;10.770;2023-04-09T01:24:12;26.48;;;10.05;;
7703;SDS011;3894;49.700;10.770;2023-04-09T01:26:53;20.63;;;9.23;;
7703;SDS011;3894;49.700;10.770;2023-04-09T01:29:25;19.67;;;8.82;;
7703;SDS011;3894;49.700;10.770;2023-04-09T01:31:59;24.92;;;9.93;;
7703;SDS011;3894;49.700;10.770;2023-04-09T01:34:27;24.15;;;9.27;;
7703;SDS011;3894;49.700;10.770;2023-04-09T01:36:55;19.20;;;8.45;;
7703;SDS011;3894;49.700;10.770;2023-04-09T01:39:25;25.92;;;10.40;;
7703;SDS011;3894;49.700;10.770;2023-04-09T01:41:51;19.02;;;9.32;;
7703;SDS011;3894;49.700;10.770;2023-04-09T01:44:18;22.92;;;10.85;;
7703;SDS011;3894;49.700;10.770;2023-04-09T01:46:47;23.50;;;9.55;;
7703;SDS011;3894;49.700;10.770;2023-04-09T01:49:15;21.52;;;9.05;;
7703;SDS011;3894;49.700;10.770;2023-04-09T01:51:41;24.13;;;10.18;;
7703;SDS011;3894;49.700;10.770;2023-04-09T01:54:07;21.23;;;8.93;;
7703;SDS011;3894;49.700;10.770;2023-04-09T01:56:46;21.35;;;9.77;;
7703;SDS011;3894;49.700;10.770;2023-04-09T01:59:13;20.58;;;8.98;;
7703;SDS011;3894;49.700;10.770;2023-04-09T02:06:58;25.55;;;10.65;;
7703;SDS011;3894;49.700;10.770;2023-04-09T02:09:38;22.77;;;8.82;;
7703;SDS011;3894;49.700;10.770;2023-04-09T02:12:06;22.92;;;9.57;;
7703;SDS011;3894;49.700;10.770;2023-04-09T02:14:36;21.50;;;9.07;;
7703;SDS011;3894;49.700;10.770;2023-04-09T02:17:03;24.33;;;10.32;;
7703;SDS011;3894;49.700;10.770;2023-04-09T02:19:47;23.05;;;9.98;;
7703;SDS011;3894;49.700;10.770;2023-04-09T02:22:13;22.13;;;9.98;;
7703;SDS011;3894;49.700;10.770;2023-04-09T02:24:41;22.40;;;9.30;;
7703;SDS011;3894;49.700;10.770;2023-04-09T02:27:07;25.60;;;9.70;;
7703;SDS011;3894;49.700;10.770;2023-04-09T02:29:34;23.40;;;11.68;;
7703;SDS011;3894;49.700;10.770;2023-04-09T02:31:59;21.70;;;9.07;;
7703;SDS011;3894;49.700;10.770;2023-04-09T02:34:25;25.17;;;11.05;;
7703;SDS011;3894;49.700;10.770;2023-04-09T02:36:54;21.40;;;9.43;;
7703;SDS011;3894;49.700;10.770;2023-04-09T02:39:20;24.85;;;10.55;;
7703;SDS011;3894;49.700;10.770;2023-04-09T02:41:51;26.40;;;9.93;;
7703;SDS011;3894;49.700;10.770;2023-04-09T02:44:17;25.70;;;10.02;;
7703;SDS011;3894;49.700;10.770;2023-04-09T02:46:43;23.17;;;9.82;;
7703;SDS011;3894;49.700;10.770;2023-04-09T02:49:10;20.88;;;8.75;;
7703;SDS011;3894;49.700;10.770;2023-04-09T02:51:35;26.90;;;10.05;;
7703;SDS011;3894;49.700;10.770;2023-04-09T02:54:01;22.70;;;9.77;;
7703;SDS011;3894;49.700;10.770;2023-04-09T02:56:28;22.90;;;9.65;;
7703;SDS011;3894;49.700;10.770;2023-04-09T02:58:53;21.67;;;8.07;;
7703;SDS011;3894;49.700;10.770;2023-04-09T03:01:19;18.35;;;8.32;;
7703;SDS011;3894;49.700;10.770;2023-04-09T03:03:45;18.92;;;8.60;;
7703;SDS011;3894;49.700;10.770;2023-04-09T03:06:11;21.73;;;9.02;;
7703;SDS011;3894;49.700;10.770;2023-04-09T03:08:37;24.40;;;10.02;;
7703;SDS011;3894;49.700;10.770;2023-04-09T03:11:03;19.27;;;8.25;;
7703;SDS011;3894;49.700;10.770;2023-04-09T03:13:28;22.35;;;8.98;;
7703;SDS011;3894;49.700;10.770;2023-04-09T03:15:55;23.52;;;9.70;;
7703;SDS011;3894;49.700;10.770;2023-04-09T03:18:21;20.63;;;9.35;;
7703;SDS011;3894;49.700;10.770;2023-04-09T03:20:49;20.90;;;8.10;;
7703;SDS011;3894;49.700;10.770;2023-04-09T03:23:17;23.38;;;9.02;;
7703;SDS011;3894;49.700;10.770;2023-04-09T03:25:44;22.00;;;9.80;;
7703;SDS011;3894;49.700;10.770;2023-04-09T03:28:10;21.25;;;9.27;;
7703;SDS011;3894;49.700;10.770;2023-04-09T03:30:36;20.88;;;9.13;;
7703;SDS011;3894;49.700;10.770;2023-04-09T03:33:02;21.17;;;9.15;;
7703;SDS011;3894;49.700;10.770;2023-04-09T03:35:28;19.85;;;9.35;;
7703;SDS011;3894;49.700;10.770;2023-04-09T03:37:56;21.13;;;9.20;;
7703;SDS011;3894;49.700;10.770;2023-04-09T03:40:22;21.63;;;9.68;;
7703;SDS011;3894;49.700;10.770;2023-04-09T03:42:48;23.15;;;9.73;;
7703;SDS011;3894;49.700;10.770;2023-04-09T03:45:14;25.58;;;9.73;;
7703;SDS011;3894;49.700;10.770;2023-04-09T03:47:40;22.08;;;9.77;;
7703;SDS011;3894;49.700;10.770;2023-04-09T03:50:06;23.83;;;9.13;;
7703;SDS011;3894;49.700;10.770;2023-04-09T03:52:31;21.83;;;9.70;;
7703;SDS011;3894;49.700;10.770;2023-04-09T03:55:01;21.20;;;9.30;;
7703;SDS011;3894;49.700;10.770;2023-04-09T03:57:28;22.90;;;9.38;;
7703;SDS011;3894;49.700;10.770;2023-04-09T03:59:53;22.33;;;9.70;;
7703;SDS011;3894;49.700;10.770;2023-04-09T04:02:20;21.20;;;9.60;;
7703;SDS011;3894;49.700;10.770;2023-04-09T04:04:46;23.20;;;10.18;;
7703;SDS011;3894;49.700;10.770;2023-04-09T04:07:12;23.23;;;9.30;;
7703;SDS011;3894;49.700;10.770;2023-04-09T04:09:38;22.63;;;9.30;;
7703;SDS011;3894;49.700;10.770;2023-04-09T04:12:04;26.00;;;10.30;;
7703;SDS011;3894;49.700;10.770;2023-04-09T04:14:31;23.77;;;9.60;;
7703;SDS011;3894;49.700;10.770;2023-04-09T04:16:57;21.67;;;9.73;;
7703;SDS011;3894;49.700;10.770;2023-04-09T04:19:23;22.58;;;8.98;;
7703;SDS011;3894;49.700;10.770;2023-04-09T04:21:49;23.38;;;10.27;;
7703;SDS011;3894;49.700;10.770;2023-04-09T04:24:17;22.13;;;9.63;;
7703;SDS011;3894;49.700;10.770;2023-04-09T04:26:43;20.75;;;9.48;;
7703;SDS011;3894;49.700;10.770;2023-04-09T04:29:10;22.88;;;9.35;;
7703;SDS011;3894;49.700;10.770;2023-04-09T04:31:36;23.17;;;10.73;;
7703;SDS011;3894;49.700;10.770;2023-04-09T04:34:04;24.48;;;10.43;;
7703;SDS011;3894;49.700;10.770;2023-04-09T04:36:30;25.60;;;11.57;;
7703;SDS011;3894;49.700;10.770;2023-04-09T04:38:57;28.17;;;13.63;;
7703;SDS011;3894;49.700;10.770;2023-04-09T04:41:25;35.50;;;16.85;;
7703;SDS011;3894;49.700;10.770;2023-04-09T04:43:52;29.02;;;12.07;;
7703;SDS011;3894;49.700;10.770;2023-04-09T04:46:18;38.05;;;15.95;;
7703;SDS011;3894;49.700;10.770;2023-04-09T04:48:44;26.90;;;12.75;;
7703;SDS011;3894;49.700;10.770;2023-04-09T04:51:10;28.13;;;11.50;;
7703;SDS011;3894;49.700;10.770;2023-04-09T04:53:36;28.50;;;12.30;;
7703;SDS011;3894;49.700;10.770;2023-04-09T04:56:05;26.23;;;12.05;;
7703;SDS011;3894;49.700;10.770;2023-04-09T04:58:31;28.50;;;13.05;;
7703;SDS011;3894;49.700;10.770;2023-04-09T05:00:56;29.02;;;11.80;;
7703;SDS011;3894;49.700;10.770;2023-04-09T05:03:25;28.95;;;11.85;;
7703;SDS011;3894;49.700;10.770;2023-04-09T05:05:51;24.80;;;10.45;;
7703;SDS011;3894;49.700;10.770;2023-04-09T05:08:17;26.38;;;10.48;;
7703;SDS011;3894;49.700;10.770;2023-04-09T05:10:42;24.95;;;10.30;;
7703;SDS011;3894;49.700;10.770;2023-04-09T05:13:09;26.48;;;11.00;;
7703;SDS011;3894;49.700;10.770;2023-04-09T05:15:38;24.75;;;10.95;;
7703;SDS011;3894;49.700;10.770;2023-04-09T05:18:05;26.85;;;10.95;;
7703;SDS011;3894;49.700;10.770;2023-04-09T05:20:32;28.20;;;10.77;;
7703;SDS011;3894;49.700;10.770;2023-04-09T05:22:58;29.83;;;11.70;;
7703;SDS011;3894;49.700;10.770;2023-04-09T05:25:24;24.48;;;10.25;;
7703;SDS011;3894;49.700;10.770;2023-04-09T05:27:50;24.00;;;9.50;;
7703;SDS011;3894;49.700;10.770;2023-04-09T05:30:15;25.73;;;10.65;;
7703;SDS011;3894;49.700;10.770;2023-04-09T05:32:41;21.52;;;10.07;;
7703;SDS011;3894;49.700;10.770;2023-04-09T05:35:10;26.25;;;10.82;;
7703;SDS011;3894;49.700;10.770;2023-04-09T05:37:36;25.48;;;10.52;;
7703;SDS011;3894;49.700;10.770;2023-04-09T05:40:02;24.75;;;9.85;;
7703;SDS011;3894;49.700;10.770;2023-04-09T05:42:28;23.70;;;9.10;;
7703;SDS011;3894;49.700;10.770;2023-04-09T05:44:54;24.95;;;10.85;;
7703;SDS011;3894;49.700;10.770;2023-04-09T05:47:20;26.55;;;11.15;;
7703;SDS011;3894;49.700;10.770;2023-04-09T05:49:46;26.23;;;11.45;;
7703;SDS011;3894;49.700;10.770;2023-04-09T05:52:13;23.80;;;9.88;;
7703;SDS011;3894;49.700;10.770;2023-04-09T05:54:40;26.70;;;10.98;;
7703;SDS011;3894;49.700;10.770;2023-04-09T05:57:06;24.50;;;10.57;;
7703;SDS011;3894;49.700;10.770;2023-04-09T05:59:32;24.20;;;9.60;;
7703;SDS011;3894;49.700;10.770;2023-04-09T06:01:58;21.90;;;10.05;;
7703;SDS011;3894;49.700;10.770;2023-04-09T06:04:24;22.65;;;9.77;;
7703;SDS011;3894;49.700;10.770;2023-04-09T06:06:53;24.15;;;10.57;;
7703;SDS011;3894;49.700;10.770;2023-04-09T06:09:24;25.63;;;11.13;;
7703;SDS011;3894;49.700;10.770;2023-04-09T06:11:51;24.45;;;10.20;;
7703;SDS011;3894;49.700;10.770;2023-04-09T06:14:21;23.88;;;10.38;;
7703;SDS011;3894;49.700;10.770;2023-04-09T06:16:47;21.80;;;9.55;;
7703;SDS011;3894;49.700;10.770;2023-04-09T06:19:14;23.02;;;9.88;;
7703;SDS011;3894;49.700;10.770;2023-04-09T06:21:50;21.85;;;9.23;;
7703;SDS011;3894;49.700;10.770;2023-04-09T06:24:15;20.05;;;8.65;;
7703;SDS011;3894;49.700;10.770;2023-04-09T06:26:41;21.35;;;8.95;;
7703;SDS011;3894;49.700;10.770;2023-04-09T06:29:07;20.13;;;8.48;;
7703;SDS011;3894;49.700;10.770;2023-04-09T06:31:33;18.20;;;7.68;;
7703;SDS011;3894;49.700;10.770;2023-04-09T06:33:59;20.15;;;8.60;;
7703;SDS011;3894;49.700;10.770;2023-04-09T06:36:25;16.60;;;7.70;;
7703;SDS011;3894;49.700;10.770;2023-04-09T06:38:54;17.85;;;7.63;;
7703;SDS011;3894;49.700;10.770;2023-04-09T06:41:23;18.17;;;8.00;;
7703;SDS011;3894;49.700;10.770;2023-04-09T06:43:50;20.77;;;8.95;;
7703;SDS011;3894;49.700;10.770;2023-04-09T06:46:16;17.73;;;7.82;;
7703;SDS011;3894;49.700;10.770;2023-04-09T06:48:44;23.67;;;8.57;;
7703;SDS011;3894;49.700;10.770;2023-04-09T06:51:10;21.15;;;9.57;;
7703;SDS011;3894;49.700;10.770;2023-04-09T06:53:36;18.70;;;7.88;;
7703;SDS011;3894;49.700;10.770;2023-04-09T06:56:03;17.75;;;8.10;;
7703;SDS011;3894;49.700;10.770;2023-04-09T06:58:29;17.42;;;7.60;;
7703;SDS011;3894;49.700;10.770;2023-04-09T07:00:58;18.00;;;8.15;;
7703;SDS011;3894;49.700;10.770;2023-04-09T07:03:24;15.95;;;7.75;;
7703;SDS011;3894;49.700;10.770;2023-04-09T07:05:52;18.13;;;7.82;;
7703;SDS011;3894;49.700;10.770;2023-04-09T07:08:18;17.45;;;7.85;;
7703;SDS011;3894;49.700;10.770;2023-04-09T07:10:47;15.65;;;7.22;;
7703;SDS011;3894;49.700;10.770;2023-04-09T07:13:15;16.95;;;7.18;;
7703;SDS011;3894;49.700;10.770;2023-04-09T07:15:41;17.83;;;8.07;;
7703;SDS011;3894;49.700;10.770;2023-04-09T07:18:08;20.40;;;7.70;;
7703;SDS011;3894;49.700;10.770;2023-04-09T07:20:33;16.35;;;7.50;;
7703;SDS011;3894;49.700;10.770;2023-04-09T07:23:01;17.35;;;7.40;;
7703;SDS011;3894;49.700;10.770;2023-04-09T07:25:30;18.10;;;7.35;;
7703;SDS011;3894;49.700;10.770;2023-04-09T07:27:59;19.50;;;7.63;;
7703;SDS011;3894;49.700;10.770;2023-04-09T07:30:25;16.08;;;6.90;;
7703;SDS011;3894;49.700;10.770;2023-04-09T07:32:51;19.05;;;7.97;;
7703;SDS011;3894;49.700;10.770;2023-04-09T07:35:20;17.95;;;8.32;;
7703;SDS011;3894;49.700;10.770;2023-04-09T07:37:46;17.33;;;8.05;;
7703;SDS011;3894;49.700;10.770;2023-04-09T07:40:12;16.38;;;7.32;;
7703;SDS011;3894;49.700;10.770;2023-04-09T07:42:38;17.40;;;8.40;;
7703;SDS011;3894;49.700;10.770;2023-04-09T07:45:04;15.48;;;7.60;;
7703;SDS011;3894;49.700;10.770;2023-04-09T07:47:31;15.05;;;7.63;;
7703;SDS011;3894;49.700;10.770;2023-04-09T07:49:57;15.68;;;7.80;;
7703;SDS011;3894;49.700;10.770;2023-04-09T07:52:23;15.40;;;7.15;;
7703;SDS011;3894;49.700;10.770;2023-04-09T07:54:55;18.70;;;8.02;;
7703;SDS011;3894;49.700;10.770;2023-04-09T07:57:21;19.35;;;8.70;;
7703;SDS011;3894;49.700;10.770;2023-04-09T07:59:51;17.10;;;7.22;;
7703;SDS011;3894;49.700;10.770;2023-04-09T08:02:17;16.48;;;7.88;;
7703;SDS011;3894;49.700;10.770;2023-04-09T08:04:43;15.40;;;7.82;;
7703;SDS011;3894;49.700;10.770;2023-04-09T08:07:09;15.27;;;7.53;;
7703;SDS011;3894;49.700;10.770;2023-04-09T08:09:35;16.98;;;8.50;;
7703;SDS011;3894;49.700;10.770;2023-04-09T08:12:01;14.93;;;6.85;;
7703;SDS011;3894;49.700;10.770;2023-04-09T08:14:27;17.00;;;7.60;;
7703;SDS011;3894;49.700;10.770;2023-04-09T08:16:53;16.10;;;7.70;;
7703;SDS011;3894;49.700;10.770;2023-04-09T08:19:22;15.27;;;6.88;;
7703;SDS011;3894;49.700;10.770;2023-04-09T08:21:50;14.50;;;7.20;;
7703;SDS011;3894;49.700;10.770;2023-04-09T08:24:16;15.85;;;7.15;;
7703;SDS011;3894;49.700;10.770;2023-04-09T08:26:48;14.35;;;6.55;;
7703;SDS011;3894;49.700;10.770;2023-04-09T08:29:16;15.55;;;7.20;;
7703;SDS011;3894;49.700;10.770;2023-04-09T08:31:42;13.57;;;5.95;;
7703;SDS011;3894;49.700;10.770;2023-04-09T08:34:08;11.43;;;6.50;;
7703;SDS011;3894;49.700;10.770;2023-04-09T08:36:34;12.95;;;6.45;;
7703;SDS011;3894;49.700;10.770;2023-04-09T08:39:01;11.85;;;6.13;;
7703;SDS011;3894;49.700;10.770;2023-04-09T08:41:27;14.55;;;6.00;;
7703;SDS011;3894;49.700;10.770;2023-04-09T08:43:54;12.75;;;6.57;;
7703;SDS011;3894;49.700;10.770;2023-04-09T08:46:21;11.07;;;5.55;;
7703;SDS011;3894;49.700;10.770;2023-04-09T08:48:48;11.13;;;5.80;;
7703;SDS011;3894;49.700;10.770;2023-04-09T08:51:16;12.50;;;6.78;;
7703;SDS011;3894;49.700;10.770;2023-04-09T08:53:46;12.77;;;5.85;;
7703;SDS011;3894;49.700;10.770;2023-04-09T08:56:22;11.82;;;5.57;;
7703;SDS011;3894;49.700;10.770;2023-04-09T08:58:48;11.60;;;5.57;;
7703;SDS011;3894;49.700;10.770;2023-04-09T09:01:24;12.55;;;6.30;;
7703;SDS011;3894;49.700;10.770;2023-04-09T09:03:55;13.57;;;6.20;;
7703;SDS011;3894;49.700;10.770;2023-04-09T09:06:32;12.23;;;6.15;;
7703;SDS011;3894;49.700;10.770;2023-04-09T09:09:10;13.82;;;6.22;;
7703;SDS011;3894;49.700;10.770;2023-04-09T09:14:15;13.20;;;5.90;;
7703;SDS011;3894;49.700;10.770;2023-04-09T09:21:56;16.25;;;6.85;;
7703;SDS011;3894;49.700;10.770;2023-04-09T09:24:26;10.98;;;5.50;;
7703;SDS011;3894;49.700;10.770;2023-04-09T09:26:55;13.80;;;5.90;;
7703;SDS011;3894;49.700;10.770;2023-04-09T09:29:24;11.88;;;6.15;;
7703;SDS011;3894;49.700;10.770;2023-04-09T09:31:51;12.55;;;6.13;;
7703;SDS011;3894;49.700;10.770;2023-04-09T09:34:20;11.95;;;6.20;;
7703;SDS011;3894;49.700;10.770;2023-04-09T09:36:47;11.40;;;5.95;;
7703;SDS011;3894;49.700;10.770;2023-04-09T09:39:13;10.32;;;5.10;;
7703;SDS011;3894;49.700;10.770;2023-04-09T09:41:41;11.75;;;5.35;;
7703;SDS011;3894;49.700;10.770;2023-04-09T09:44:33;12.02;;;6.00;;
7703;SDS011;3894;49.700;10.770;2023-04-09T09:47:02;9.73;;;4.60;;
7703;SDS011;3894;49.700;10.770;2023-04-09T09:49:28;9.57;;;4.82;;
7703;SDS011;3894;49.700;10.770;2023-04-09T09:51:55;10.63;;;4.90;;
7703;SDS011;3894;49.700;10.770;2023-04-09T09:54:31;11.55;;;4.97;;
7703;SDS011;3894;49.700;10.770;2023-04-09T09:57:10;9.57;;;4.22;;
7703;SDS011;3894;49.700;10.770;2023-04-09T09:59:42;9.38;;;4.70;;
7703;SDS011;3894;49.700;10.770;2023-04-09T10:02:18;10.77;;;4.93;;
7703;SDS011;3894;49.700;10.770;2023-04-09T10:04:47;10.25;;;4.63;;
7703;SDS011;3894;49.700;10.770;2023-04-09T10:07:22;9.55;;;4.78;;
7703;SDS011;3894;49.700;10.770;2023-04-09T10:09:51;11.02;;;4.78;;
7703;SDS011;3894;49.700;10.770;2023-04-09T10:14:57;9.45;;;4.43;;
7703;SDS011;3894;49.700;10.770;2023-04-09T10:17:31;9.25;;;4.20;;
7703;SDS011;3894;49.700;10.770;2023-04-09T10:20:00;10.48;;;4.45;;
7703;SDS011;3894;49.700;10.770;2023-04-09T10:22:32;9.70;;;5.22;;
7703;SDS011;3894;49.700;10.770;2023-04-09T10:25:06;9.88;;;4.30;;
7703;SDS011;3894;49.700;10.770;2023-04-09T10:27:33;10.32;;;4.05;;
7703;SDS011;3894;49.700;10.770;2023-04-09T10:30:02;9.15;;;4.53;;
7703;SDS011;3894;49.700;10.770;2023-04-09T10:32:40;11.93;;;5.15;;
7703;SDS011;3894;49.700;10.770;2023-04-09T10:35:06;8.63;;;4.00;;
7703;SDS011;3894;49.700;10.770;2023-04-09T10:37:42;9.93;;;4.38;;
7703;SDS011;3894;49.700;10.770;2023-04-09T10:40:18;9.38;;;4.70;;
7703;SDS011;3894;49.700;10.770;2023-04-09T10:42:49;10.23;;;4.60;;
7703;SDS011;3894;49.700;10.770;2023-04-09T10:45:16;11.95;;;5.22;;
7703;SDS011;3894;49.700;10.770;2023-04-09T10:50:24;10.35;;;4.35;;
7703;SDS011;3894;49.700;10.770;2023-04-09T10:53:01;10.70;;;4.07;;
7703;SDS011;3894;49.700;10.770;2023-04-09T10:58:06;10.95;;;5.18;;
7703;SDS011;3894;49.700;10.770;2023-04-09T11:00:37;9.82;;;4.53;;
7703;SDS011;3894;49.700;10.770;2023-04-09T11:03:18;9.80;;;4.75;;
7703;SDS011;3894;49.700;10.770;2023-04-09T11:06:13;10.27;;;4.55;;
7703;SDS011;3894;49.700;10.770;2023-04-09T11:08:42;9.68;;;4.93;;
7703;SDS011;3894;49.700;10.770;2023-04-09T11:11:08;9.85;;;5.00;;
7703;SDS011;3894;49.700;10.770;2023-04-09T11:13:39;10.38;;;5.13;;
7703;SDS011;3894;49.700;10.770;2023-04-09T11:16:33;9.50;;;3.78;;
7703;SDS011;3894;49.700;10.770;2023-04-09T11:19:05;8.48;;;4.10;;
7703;SDS011;3894;49.700;10.770;2023-04-09T11:21:44;9.45;;;4.45;;
7703;SDS011;3894;49.700;10.770;2023-04-09T11:24:12;11.23;;;5.20;;
7703;SDS011;3894;49.700;10.770;2023-04-09T11:26:39;10.02;;;4.60;;
7703;SDS011;3894;49.700;10.770;2023-04-09T11:29:06;8.45;;;3.90;;
7703;SDS011;3894;49.700;10.770;2023-04-09T11:31:35;8.27;;;4.13;;
7703;SDS011;3894;49.700;10.770;2023-04-09T11:34:01;9.43;;;4.70;;
7703;SDS011;3894;49.700;10.770;2023-04-09T11:36:27;7.72;;;3.95;;
7703;SDS011;3894;49.700;10.770;2023-04-09T11:38:53;9.20;;;4.38;;
7703;SDS011;3894;49.700;10.770;2023-04-09T11:44:03;8.70;;;4.72;;
7703;SDS011;3894;49.700;10.770;2023-04-09T11:46:34;10.77;;;5.47;;
7703;SDS011;3894;49.700;10.770;2023-04-09T11:49:00;8.82;;;4.28;;
7703;SDS011;3894;49.700;10.770;2023-04-09T11:51:29;6.93;;;3.17;;
7703;SDS011;3894;49.700;10.770;2023-04-09T11:54:03;7.05;;;3.53;;
7703;SDS011;3894;49.700;10.770;2023-04-09T11:56:30;8.43;;;3.25;;
7703;SDS011;3894;49.700;10.770;2023-04-09T11:58:57;8.07;;;3.35;;
7703;SDS011;3894;49.700;10.770;2023-04-09T12:01:35;8.07;;;3.25;;
7703;SDS011;3894;49.700;10.770;2023-04-09T12:04:04;7.85;;;3.70;;
7703;SDS011;3894;49.700;10.770;2023-04-09T12:06:31;7.35;;;3.58;;
7703;SDS011;3894;49.700;10.770;2023-04-09T12:09:00;8.20;;;3.78;;
7703;SDS011;3894;49.700;10.770;2023-04-09T12:11:27;7.00;;;4.13;;
7703;SDS011;3894;49.700;10.770;2023-04-09T12:14:01;9.32;;;3.70;;
7703;SDS011;3894;49.700;10.770;2023-04-09T12:16:34;7.80;;;3.15;;
7703;SDS011;3894;49.700;10.770;2023-04-09T12:19:06;7.75;;;3.30;;
7703;SDS011;3894;49.700;10.770;2023-04-09T12:21:49;7.30;;;3.53;;
7703;SDS011;3894;49.700;10.770;2023-04-09T12:24:22;7.03;;;3.38;;
7703;SDS011;3894;49.700;10.770;2023-04-09T12:26:49;7.40;;;3.30;;
7703;SDS011;3894;49.700;10.770;2023-04-09T12:29:18;7.18;;;3.13;;
7703;SDS011;3894;49.700;10.770;2023-04-09T12:31:45;7.32;;;3.63;;
7703;SDS011;3894;49.700;10.770;2023-04-09T12:34:12;9.02;;;3.40;;
7703;SDS011;3894;49.700;10.770;2023-04-09T12:36:39;8.32;;;3.22;;
7703;SDS011;3894;49.700;10.770;2023-04-09T12:39:08;6.88;;;2.83;;
7703;SDS011;3894;49.700;10.770;2023-04-09T12:41:37;7.75;;;3.35;;
7703;SDS011;3894;49.700;10.770;2023-04-09T12:44:06;8.85;;;3.28;;
7703;SDS011;3894;49.700;10.770;2023-04-09T12:46:32;7.00;;;3.28;;
7703;SDS011;3894;49.700;10.770;2023-04-09T12:49:03;7.68;;;3.17;;
7703;SDS011;3894;49.700;10.770;2023-04-09T12:51:30;7.05;;;3.38;;
7703;SDS011;3894;49.700;10.770;2023-04-09T12:53:56;6.90;;;2.53;;
7703;SDS011;3894;49.700;10.770;2023-04-09T12:56:23;7.20;;;3.13;;
7703;SDS011;3894;49.700;10.770;2023-04-09T12:58:48;7.05;;;2.88;;
7703;SDS011;3894;49.700;10.770;2023-04-09T13:01:18;6.60;;;2.53;;
7703;SDS011;3894;49.700;10.770;2023-04-09T13:03:45;6.80;;;3.15;;
7703;SDS011;3894;49.700;10.770;2023-04-09T13:06:11;6.78;;;3.05;;
7703;SDS011;3894;49.700;10.770;2023-04-09T13:08:37;6.93;;;2.85;;
7703;SDS011;3894;49.700;10.770;2023-04-09T13:11:03;8.50;;;3.45;;
7703;SDS011;3894;49.700;10.770;2023-04-09T13:13:29;6.65;;;2.75;;
7703;SDS011;3894;49.700;10.770;2023-04-09T13:15:58;7.30;;;3.17;;
7703;SDS011;3894;49.700;10.770;2023-04-09T13:18:24;6.95;;;3.35;;
7703;SDS011;3894;49.700;10.770;2023-04-09T13:21:07;6.50;;;2.83;;
7703;SDS011;3894;49.700;10.770;2023-04-09T13:23:33;6.70;;;3.08;;
7703;SDS011;3894;49.700;10.770;2023-04-09T13:25:59;6.78;;;3.10;;
7703;SDS011;3894;49.700;10.770;2023-04-09T13:28:25;6.97;;;3.00;;
7703;SDS011;3894;49.700;10.770;2023-04-09T13:30:51;7.50;;;3.30;;
7703;SDS011;3894;49.700;10.770;2023-04-09T13:33:17;6.90;;;2.97;;
7703;SDS011;3894;49.700;10.770;2023-04-09T13:35:43;6.30;;;2.88;;
7703;SDS011;3894;49.700;10.770;2023-04-09T13:38:12;7.28;;;3.50;;
7703;SDS011;3894;49.700;10.770;2023-04-09T13:40:40;6.90;;;3.00;;
7703;SDS011;3894;49.700;10.770;2023-04-09T13:43:09;6.28;;;2.70;;
7703;SDS011;3894;49.700;10.770;2023-04-09T13:45:55;6.40;;;2.50;;
7703;SDS011;3894;49.700;10.770;2023-04-09T13:48:25;7.00;;;2.95;;
7703;SDS011;3894;49.700;10.770;2023-04-09T13:51:14;7.32;;;3.33;;
7703;SDS011;3894;49.700;10.770;2023-04-09T13:53:46;7.75;;;3.83;;
7703;SDS011;3894;49.700;10.770;2023-04-09T13:56:15;8.20;;;3.53;;
7703;SDS011;3894;49.700;10.770;2023-04-09T13:58:45;7.85;;;3.25;;
7703;SDS011;3894;49.700;10.770;2023-04-09T14:01:14;10.40;;;4.40;;
7703;SDS011;3894;49.700;10.770;2023-04-09T14:03:40;6.82;;;2.95;;
7703;SDS011;3894;49.700;10.770;2023-04-09T14:06:07;8.07;;;3.28;;
7703;SDS011;3894;49.700;10.770;2023-04-09T14:08:33;8.27;;;3.30;;
7703;SDS011;3894;49.700;10.770;2023-04-09T14:11:00;8.48;;;3.45;;
7703;SDS011;3894;49.700;10.770;2023-04-09T14:13:25;7.90;;;3.67;;
7703;SDS011;3894;49.700;10.770;2023-04-09T14:15:51;7.18;;;3.03;;
7703;SDS011;3894;49.700;10.770;2023-04-09T14:18:17;6.65;;;3.00;;
7703;SDS011;3894;49.700;10.770;2023-04-09T14:20:43;7.25;;;3.10;;
7703;SDS011;3894;49.700;10.770;2023-04-09T14:23:09;7.88;;;2.92;;
7703;SDS011;3894;49.700;10.770;2023-04-09T14:25:34;6.97;;;3.03;;
7703;SDS011;3894;49.700;10.770;2023-04-09T14:28:00;7.00;;;2.92;;
7703;SDS011;3894;49.700;10.770;2023-04-09T14:30:29;8.07;;;3.10;;
7703;SDS011;3894;49.700;10.770;2023-04-09T14:32:55;6.50;;;2.83;;
7703;SDS011;3894;49.700;10.770;2023-04-09T14:35:21;7.97;;;3.33;;
7703;SDS011;3894;49.700;10.770;2023-04-09T14:37:47;6.80;;;2.70;;
7703;SDS011;3894;49.700;10.770;2023-04-09T14:40:13;6.63;;;2.60;;
7703;SDS011;3894;49.700;10.770;2023-04-09T14:42:40;7.53;;;2.95;;
7703;SDS011;3894;49.700;10.770;2023-04-09T14:45:06;8.38;;;2.92;;
7703;SDS011;3894;49.700;10.770;2023-04-09T14:47:34;6.45;;;2.78;;
7703;SDS011;3894;49.700;10.770;2023-04-09T14:50:00;6.43;;;3.00;;
7703;SDS011;3894;49.700;10.770;2023-04-09T14:52:26;6.72;;;3.47;;
7703;SDS011;3894;49.700;10.770;2023-04-09T14:54:54;6.05;;;2.92;;
7703;SDS011;3894;49.700;10.770;2023-04-09T14:57:21;7.50;;;3.08;;
7703;SDS011;3894;49.700;10.770;2023-04-09T14:59:47;5.55;;;2.45;;
7703;SDS011;3894;49.700;10.770;2023-04-09T15:02:12;8.60;;;3.13;;
7703;SDS011;3894;49.700;10.770;2023-04-09T15:04:38;7.15;;;3.30;;
7703;SDS011;3894;49.700;10.770;2023-04-09T15:07:04;6.60;;;2.67;;
7703;SDS011;3894;49.700;10.770;2023-04-09T15:09:30;6.78;;;3.50;;
7703;SDS011;3894;49.700;10.770;2023-04-09T15:11:56;7.32;;;2.65;;
7703;SDS011;3894;49.700;10.770;2023-04-09T15:14:22;8.23;;;3.15;;
7703;SDS011;3894;49.700;10.770;2023-04-09T15:16:48;6.93;;;3.10;;
7703;SDS011;3894;49.700;10.770;2023-04-09T15:19:14;6.50;;;3.17;;
7703;SDS011;3894;49.700;10.770;2023-04-09T15:21:40;5.97;;;2.78;;
7703;SDS011;3894;49.700;10.770;2023-04-09T15:24:06;6.72;;;2.85;;
7703;SDS011;3894;49.700;10.770;2023-04-09T15:26:38;7.20;;;3.33;;
7703;SDS011;3894;49.700;10.770;2023-04-09T15:29:05;7.03;;;3.13;;